Time;durP1;ratioP1;P1;durP2;ratioP2;P2;SDS_P1;SDS_P2;PMS_P1;PMS_P2;Temp;Humidity;BMP_temperature;BMP_pressure;BME280_temperature;BME280_humidity;BME280_pressure;Samples;Min_cycle;Max_cycle;Signal;HPM_P1;HPM_P2
2023/03/23 00:00:53;;;;;;;;;;;;;;;29.89;22.40;100792.47;5097462;28;1174;-15
2023/03/23 00:03:20;;;;;;;;;;;;;;;29.89;22.39;100804.16;5097390;28;1046;-15
2023/03/23 00:05:50;;;;;;;;;;;;;;;29.90;22.51;100796.84;5096680;28;1022;-15
2023/03/23 00:08:16;;;;;;;;;;;;;;;29.85;22.66;100796.59;5084275;28;1138;-15
2023/03/23 00:10:42;;;;;;;;;;;;;;;29.81;22.44;100801.59;5090424;28;1153;-15
2023/03/23 00:13:07;;;;;;;;;;;;;;;29.82;22.60;100790.56;5089847;28;1034;-15
2023/03/23 00:15:33;;;;;;;;;;;;;;;29.73;22.57;100789.03;5090835;28;1011;-15
2023/03/23 00:18:02;;;;;;;;;;;;;;;29.65;22.91;100790.03;5076641;28;1905;-15
2023/03/23 00:20:39;;;;;;;;;;;;;;;29.89;22.37;100789.75;5094888;28;1220;-15
2023/03/23 00:23:06;;;;;;;;;;;;;;;29.60;22.93;100781.66;5082878;28;865;-15
2023/03/23 00:25:32;;;;;;;;;;;;;;;29.75;22.61;100784.25;5094248;28;1137;-15
2023/03/23 00:27:57;;;;;;;;;;;;;;;29.92;22.36;100782.06;5091459;28;1134;-15
2023/03/23 00:30:23;;;;;;;;;;;;;;;29.76;22.62;100785.09;5089010;28;1103;-15
2023/03/23 00:32:50;;;;;;;;;;;;;;;29.81;22.59;100785.34;5090220;28;1055;-14
2023/03/23 00:35:17;;;;;;;;;;;;;;;29.76;22.59;100777.78;5088756;28;905;-15
2023/03/23 00:37:43;;;;;;;;;;;;;;;29.76;22.63;100777.78;5094607;28;1898;-15
2023/03/23 00:40:10;;;;;;;;;;;;;;;29.78;22.55;100783.84;5058468;28;1226;-15
2023/03/23 00:42:37;;;;;;;;;;;;;;;29.60;22.76;100778.09;5078546;28;1146;-15
2023/03/23 00:45:10;;;;;;;;;;;;;;;29.63;22.75;100775.03;5087546;28;1026;-15
2023/03/23 00:47:36;;;;;;;;;;;;;;;29.73;22.78;100778.19;5061025;28;976;-15
2023/03/23 00:50:05;;;;;;;;;;;;;;;29.79;22.58;100774.69;5096341;28;1077;-15
2023/03/23 00:52:30;;;;;;;;;;;;;;;29.70;22.74;100773.16;5078044;28;1105;-15
2023/03/23 00:54:56;;;;;;;;;;;;;;;29.81;22.49;100780.72;5086017;28;1059;-15
2023/03/23 00:57:23;;;;;;;;;;;;;;;29.86;22.49;100774.72;5061075;28;1981;-15
2023/03/23 00:59:53;;;;;;;;;;;;;;;29.94;22.39;100763.72;5067868;28;1238;-15
2023/03/23 01:02:19;;;;;;;;;;;;;;;29.95;22.43;100767.25;5062771;28;1227;-15
2023/03/23 01:04:44;;;;;;;;;;;;;;;29.93;22.23;100770.16;5078247;28;1102;-15
2023/03/23 01:07:12;;;;;;;;;;;;;;;29.95;22.39;100759.09;5078347;28;1170;-15
2023/03/23 01:09:44;;;;;;;;;;;;;;;29.94;22.34;100762.88;5069069;28;1283;-15
2023/03/23 01:12:11;;;;;;;;;;;;;;;29.97;22.34;100759.75;5077939;28;1105;-15
2023/03/23 01:14:36;;;;;;;;;;;;;;;29.98;22.31;100757.88;5078870;28;1273;-15
2023/03/23 01:17:02;;;;;;;;;;;;;;;29.98;22.57;100758.69;5071080;28;1914;-15
2023/03/23 01:19:28;;;;;;;;;;;;;;;30.00;22.46;100750.34;5087219;28;1141;-15
2023/03/23 01:21:53;;;;;;;;;;;;;;;29.95;22.47;100753.69;5095490;28;1141;-15
2023/03/23 01:24:19;;;;;;;;;;;;;;;29.76;22.65;100756.09;5095869;28;1051;-15
2023/03/23 01:26:44;;;;;;;;;;;;;;;29.80;22.65;100760.09;5095425;28;1010;-15
2023/03/23 01:29:10;;;;;;;;;;;;;;;29.74;22.77;100747.34;5090541;28;1038;-15
2023/03/23 01:31:36;;;;;;;;;;;;;;;29.86;22.45;100755.75;5093317;28;1197;-15
2023/03/23 01:34:04;;;;;;;;;;;;;;;29.99;22.50;100762.25;5077656;28;1359;-15
2023/03/23 01:36:32;;;;;;;;;;;;;;;29.89;22.57;100757.22;5069379;28;1421;-15
2023/03/23 01:39:00;;;;;;;;;;;;;;;29.99;22.44;100762.25;5065756;28;1973;-15
2023/03/23 01:41:26;;;;;;;;;;;;;;;30.01;22.23;100762.91;5071058;28;1210;-15
2023/03/23 01:43:54;;;;;;;;;;;;;;;29.86;22.53;100760.31;5069731;28;2247;-15
2023/03/23 01:46:22;;;;;;;;;;;;;;;29.62;22.79;100765.19;5071804;28;1212;-15
2023/03/23 01:48:47;;;;;;;;;;;;;;;29.70;22.63;100765.88;5057676;28;1170;-15
2023/03/23 01:51:14;;;;;;;;;;;;;;;29.57;22.76;100760.34;5095098;28;1066;-15
2023/03/23 01:53:44;;;;;;;;;;;;;;;29.50;22.92;100773.03;5077973;28;1808;-15
2023/03/23 01:56:11;;;;;;;;;;;;;;;29.31;23.21;100768.09;5064420;28;1154;-15
2023/03/23 01:58:37;;;;;;;;;;;;;;;29.42;22.91;100768.59;5071072;28;1984;-15
2023/03/23 02:01:04;;;;;;;;;;;;;;;29.16;23.11;100764.69;5081274;28;1086;-15
2023/03/23 02:03:31;;;;;;;;;;;;;;;29.29;23.06;100772.06;5067782;28;1220;-16
2023/03/23 02:05:58;;;;;;;;;;;;;;;29.27;23.19;100769.56;5052388;28;1286;-15
2023/03/23 02:08:33;;;;;;;;;;;;;;;29.17;23.33;100763.63;5081306;28;1186;-15
2023/03/23 02:11:00;;;;;;;;;;;;;;;29.29;22.95;100772.91;5079417;28;1344;-15
2023/03/23 02:13:27;;;;;;;;;;;;;;;29.38;23.03;100773.56;5068045;28;1250;-15
2023/03/23 02:16:11;;;;;;;;;;;;;;;29.05;23.31;100774.16;5090688;28;1136;-15
2023/03/23 02:18:40;;;;;;;;;;;;;;;29.11;23.18;100770.69;5078737;28;1975;-15
2023/03/23 02:21:08;;;;;;;;;;;;;;;29.06;23.28;100771.25;5081429;28;1355;-15
2023/03/23 02:23:43;;;;;;;;;;;;;;;29.16;23.29;100773.63;5075565;28;1466;-15
2023/03/23 02:26:17;;;;;;;;;;;;;;;29.01;23.40;100771.00;5060693;28;1225;-15
2023/03/23 02:28:48;;;;;;;;;;;;;;;29.05;23.34;100772.31;5068888;28;1104;-15
2023/03/23 02:31:21;;;;;;;;;;;;;;;29.09;23.05;100773.56;5067535;28;1102;-15
2023/03/23 02:33:56;;;;;;;;;;;;;;;29.01;23.43;100772.91;5071485;28;1191;-15
2023/03/23 02:36:28;;;;;;;;;;;;;;;28.99;23.49;100769.53;5071134;28;1028;-15
2023/03/23 02:38:53;;;;;;;;;;;;;;;29.04;23.29;100776.06;5072009;28;1977;-15
2023/03/23 02:41:20;;;;;;;;;;;;;;;29.20;23.35;100774.91;5085131;28;1094;-15
2023/03/23 02:43:46;;;;;;;;;;;;;;;29.20;23.21;100777.63;5069532;28;1149;-15
2023/03/23 02:46:11;;;;;;;;;;;;;;;29.07;23.08;100781.06;5065368;28;1193;-15
2023/03/23 02:48:37;;;;;;;;;;;;;;;29.07;23.34;100775.66;5080553;28;1089;-15
2023/03/23 02:51:03;;;;;;;;;;;;;;;29.08;23.23;100781.88;5080519;28;1288;-15
2023/03/23 02:53:28;;;;;;;;;;;;;;;29.08;23.28;100781.88;5063743;28;1158;-15
2023/03/23 02:55:55;;;;;;;;;;;;;;;29.04;23.28;100778.75;5073751;28;1214;-15
2023/03/23 02:58:22;;;;;;;;;;;;;;;29.11;23.41;100786.94;5053639;28;1911;-15
2023/03/23 03:00:49;;;;;;;;;;;;;;;29.05;23.17;100788.53;5092922;28;1165;-15
2023/03/23 03:03:15;;;;;;;;;;;;;;;29.02;23.54;100788.94;5090863;28;1145;-15
2023/03/23 03:05:44;;;;;;;;;;;;;;;29.00;23.58;100792.88;5067170;28;1111;-15
2023/03/23 03:08:21;;;;;;;;;;;;;;;28.99;23.26;100792.03;5067043;28;1311;-15
2023/03/23 03:11:10;;;;;;;;;;;;;;;29.11;23.49;100791.50;5059465;28;1095;-15
2023/03/23 03:13:56;;;;;;;;;;;;;;;29.07;23.46;100799.19;5073729;28;1095;-15
2023/03/23 03:16:21;;;;;;;;;;;;;;;28.98;23.63;100800.38;5073205;28;1457;-15
2023/03/23 03:19:02;;;;;;;;;;;;;;;29.08;23.15;100798.13;5084334;28;1906;-15
2023/03/23 03:21:28;;;;;;;;;;;;;;;28.93;23.51;100795.47;5084562;28;1044;-15
2023/03/23 03:23:58;;;;;;;;;;;;;;;29.05;23.39;100791.25;5059669;28;1098;-15
2023/03/23 03:26:26;;;;;;;;;;;;;;;28.99;23.64;100789.34;5075397;28;1131;-15
2023/03/23 03:28:54;;;;;;;;;;;;;;;28.87;23.62;100786.28;5070873;28;1339;-15
2023/03/23 03:31:21;;;;;;;;;;;;;;;28.89;23.45;100792.34;5062002;28;1268;-15
2023/03/23 03:33:47;;;;;;;;;;;;;;;28.94;23.33;100798.03;5070105;28;1204;-15
2023/03/23 03:36:20;;;;;;;;;;;;;;;28.96;23.18;100798.63;5066251;28;1277;-15
2023/03/23 03:38:48;;;;;;;;;;;;;;;28.92;23.50;100799.22;5072737;28;1882;-15
2023/03/23 03:41:14;;;;;;;;;;;;;;;28.90;23.54;100807.56;5079324;28;1158;-15
2023/03/23 03:43:40;;;;;;;;;;;;;;;28.98;23.38;100798.47;5079772;28;1203;-15
2023/03/23 03:46:06;;;;;;;;;;;;;;;28.96;23.49;100801.34;5062201;28;1177;-15
2023/03/23 03:48:31;;;;;;;;;;;;;;;28.92;23.60;100805.50;5070344;28;1259;-15
2023/03/23 03:50:57;;;;;;;;;;;;;;;28.94;23.50;100802.59;5097532;28;1169;-15
2023/03/23 03:53:23;;;;;;;;;;;;;;;28.95;23.68;100798.84;5079613;28;1129;-15
2023/03/23 03:55:49;;;;;;;;;;;;;;;28.94;23.68;100808.00;5065732;28;1346;-15
2023/03/23 03:58:17;;;;;;;;;;;;;;;26.48;26.17;100801.09;5079284;28;1965;-16
2023/03/23 04:01:04;;;;;;;;;;;;;;;28.56;23.18;100815.31;5060335;28;1200;-16
2023/03/23 04:03:34;;;;;;;;;;;;;;;27.81;24.01;100808.13;5079004;28;1150;-16
2023/03/23 04:06:13;;;;;;;;;;;;;;;27.87;23.58;100807.41;5068190;28;1754;-16
2023/03/23 04:08:41;;;;;;;;;;;;;;;28.53;22.73;100813.00;5080160;28;1218;-16
2023/03/23 04:11:10;;;;;;;;;;;;;;;28.08;23.03;100811.19;5092449;28;1105;-16
2023/03/23 04:13:35;;;;;;;;;;;;;;;28.48;22.35;100813.59;5075259;28;1131;-16
2023/03/23 04:16:20;;;;;;;;;;;;;;;28.55;22.54;100819.06;5097068;28;1076;-15
2023/03/23 04:18:47;;;;;;;;;;;;;;;27.94;22.87;100807.50;5065521;28;1990;-15
2023/03/23 04:21:15;;;;;;;;;;;;;;;28.29;22.78;100817.72;5078988;28;1220;-16
2023/03/23 04:23:43;;;;;;;;;;;;;;;28.03;22.68;100815.50;5070650;28;1092;-16
2023/03/23 04:26:12;;;;;;;;;;;;;;;28.17;22.66;100819.22;5058719;28;1171;-16
2023/03/23 04:28:42;;;;;;;;;;;;;;;28.02;22.89;100811.97;5066588;28;1221;-16
2023/03/23 04:31:45;;;;;;;;;;;;;;;26.83;24.08;100812.34;5082568;28;1287;-16
2023/03/23 04:34:32;;;;;;;;;;;;;;;26.95;24.07;100814.63;5082056;28;1245;-16
2023/03/23 04:36:58;;;;;;;;;;;;;;;26.58;24.67;100819.75;5070190;28;1988;-16
2023/03/23 04:39:28;;;;;;;;;;;;;;;26.15;25.14;100821.78;5075638;28;1359;-16
2023/03/23 04:41:55;;;;;;;;;;;;;;;25.83;25.78;100831.66;5058810;28;1176;-16
2023/03/23 04:44:42;;;;;;;;;;;;;;;25.51;26.23;100831.50;5050322;28;1132;-16
2023/03/23 04:47:12;;;;;;;;;;;;;;;26.21;25.19;100832.91;5076231;28;1165;-16
2023/03/23 04:49:45;;;;;;;;;;;;;;;26.09;25.45;100827.84;5058887;28;1233;-16
2023/03/23 04:52:31;;;;;;;;;;;;;;;25.65;25.76;100823.78;5079587;28;1131;-16
2023/03/23 04:54:58;;;;;;;;;;;;;;;25.35;26.51;100829.69;5067322;28;1280;-16
2023/03/23 04:57:27;;;;;;;;;;;;;;;25.87;26.21;100834.84;5058338;28;1902;-15
2023/03/23 05:00:16;;;;;;;;;;;;;;;25.99;25.78;100827.25;5079051;28;1234;-15
2023/03/23 05:02:52;;;;;;;;;;;;;;;26.39;25.25;100833.50;5077372;28;1293;-15
2023/03/23 05:05:21;;;;;;;;;;;;;;;25.73;25.92;100834.53;5071423;28;1103;-15
2023/03/23 05:07:49;;;;;;;;;;;;;;;25.26;26.62;100836.91;5067951;28;1305;-15
2023/03/23 05:10:18;;;;;;;;;;;;;;;25.40;26.12;100846.19;5078046;28;1357;-15
2023/03/23 05:12:44;;;;;;;;;;;;;;;24.97;26.81;100850.84;5064944;28;1207;-15
2023/03/23 05:15:11;;;;;;;;;;;;;;;25.11;26.87;100849.38;5071077;28;1269;-15
2023/03/23 05:17:36;;;;;;;;;;;;;;;26.28;25.44;100850.03;5057707;28;1906;-15
2023/03/23 05:20:11;;;;;;;;;;;;;;;25.67;26.30;100856.78;5071391;28;1127;-15
2023/03/23 05:22:44;;;;;;;;;;;;;;;25.59;26.63;100854.88;5070614;28;1127;-15
2023/03/23 05:25:10;;;;;;;;;;;;;;;25.60;26.78;100856.59;5073758;28;1229;-15
2023/03/23 05:27:43;;;;;;;;;;;;;;;25.59;26.52;100854.88;5078162;28;1213;-15
2023/03/23 05:30:27;;;;;;;;;;;;;;;25.60;26.74;100861.97;5075487;28;942;-15
2023/03/23 05:32:54;;;;;;;;;;;;;;;25.60;26.67;100861.13;5058063;28;1158;-15
2023/03/23 05:35:42;;;;;;;;;;;;;;;25.57;26.74;100865.03;5091041;28;1153;-15
2023/03/23 05:38:08;;;;;;;;;;;;;;;25.58;26.81;100863.16;5099739;28;1970;-15
2023/03/23 05:40:34;;;;;;;;;;;;;;;25.56;26.80;100874.09;5076848;28;1193;-15
2023/03/23 05:43:19;;;;;;;;;;;;;;;25.51;27.12;100877.28;5061736;28;1257;-14
2023/03/23 05:46:09;;;;;;;;;;;;;;;25.54;27.05;100876.97;5074874;28;1268;-14
2023/03/23 05:48:36;;;;;;;;;;;;;;;25.54;27.21;100881.53;5073107;28;1107;-14
2023/03/23 05:51:03;;;;;;;;;;;;;;;25.47;27.26;100884.03;5081570;28;1195;-15
2023/03/23 05:53:31;;;;;;;;;;;;;;;25.56;26.92;100888.41;5072966;28;1290;-14
2023/03/23 05:56:00;;;;;;;;;;;;;;;25.56;27.04;100887.56;5081273;28;1302;-15
2023/03/23 05:58:53;;;;;;;;;;;;;;;25.49;27.27;100879.31;5065717;28;1977;-15
2023/03/23 06:01:18;;;;;;;;;;;;;;;25.48;27.09;100885.72;5075458;28;1366;-15
2023/03/23 06:03:45;;;;;;;;;;;;;;;25.49;27.21;100878.50;5067675;28;1840;-15
2023/03/23 06:06:21;;;;;;;;;;;;;;;25.38;27.52;100890.44;5081549;28;1131;-15
2023/03/23 06:08:51;;;;;;;;;;;;;;;25.54;27.21;100895.00;5081270;28;1241;-15
2023/03/23 06:11:25;;;;;;;;;;;;;;;25.64;26.91;100892.16;5081384;28;1547;-15
2023/03/23 06:14:08;;;;;;;;;;;;;;;25.59;27.16;100894.47;5061703;28;1397;-15
2023/03/23 06:16:33;;;;;;;;;;;;;;;25.63;27.13;100894.00;5075304;28;1619;-14
2023/03/23 06:19:03;;;;;;;;;;;;;;;25.64;27.16;100898.38;5073146;28;1975;-14
2023/03/23 06:21:34;;;;;;;;;;;;;;;25.52;27.43;100895.16;5061568;28;1337;-15
2023/03/23 06:24:21;;;;;;;;;;;;;;;25.63;26.96;100899.38;5090277;28;1153;-15
2023/03/23 06:26:47;;;;;;;;;;;;;;;25.50;27.41;100899.00;5080652;28;1150;-15
2023/03/23 06:29:17;;;;;;;;;;;;;;;25.48;27.24;100906.41;5081230;28;1353;-14
2023/03/23 06:31:47;;;;;;;;;;;;;;;25.61;27.30;100904.06;5066777;28;1360;-14
2023/03/23 06:34:13;;;;;;;;;;;;;;;25.62;27.09;100902.22;5080824;28;1303;-15
2023/03/23 06:37:11;;;;;;;;;;;;;;;25.60;27.14;100913.16;5088650;28;1910;-15
2023/03/23 06:39:45;;;;;;;;;;;;;;;25.66;27.32;100917.06;5067424;28;1251;-15
2023/03/23 06:42:18;;;;;;;;;;;;;;;25.57;27.75;100916.19;5068324;28;1234;-15
2023/03/23 06:44:49;;;;;;;;;;;;;;;25.63;27.27;100912.00;5080219;28;1169;-14
2023/03/23 06:47:16;;;;;;;;;;;;;;;25.68;27.24;100909.66;5098198;28;1042;-15
2023/03/23 06:49:46;;;;;;;;;;;;;;;25.80;27.18;100918.22;5068382;28;1248;-15
2023/03/23 06:52:22;;;;;;;;;;;;;;;25.69;27.32;100927.50;5075780;28;1285;-15
2023/03/23 06:54:50;;;;;;;;;;;;;;;25.73;27.37;100928.00;5090127;28;1146;-15
2023/03/23 06:57:17;;;;;;;;;;;;;;;25.80;27.33;100931.69;5062584;28;1985;-15
2023/03/23 06:59:45;;;;;;;;;;;;;;;25.90;27.29;100924.28;5079990;28;1527;-15
2023/03/23 07:02:11;;;;;;;;;;;;;;;25.86;27.28;100930.19;5064927;28;1122;-14
2023/03/23 07:04:38;;;;;;;;;;;;;;;25.76;27.54;100930.34;5080310;28;1232;-15
2023/03/23 07:07:14;;;;;;;;;;;;;;;25.65;27.41;100931.53;5066436;28;1213;-15
2023/03/23 07:09:47;;;;;;;;;;;;;;;25.75;27.62;100939.44;5080530;28;1311;-15
2023/03/23 07:12:16;;;;;;;;;;;;;;;25.90;27.21;100931.53;5066472;28;1450;-14
2023/03/23 07:14:45;;;;;;;;;;;;;;;25.86;27.22;100935.59;5066501;28;1331;-14
2023/03/23 07:17:11;;;;;;;;;;;;;;;25.58;28.08;100931.34;5059993;28;1914;-15
2023/03/23 07:19:43;;;;;;;;;;;;;;;25.48;29.48;100936.03;5074120;28;1265;-14
2023/03/23 07:22:12;;;;;;;;;;;;;;;25.77;28.41;100943.69;5079755;28;1460;-14
2023/03/23 07:24:39;;;;;;;;;;;;;;;25.77;28.03;100942.81;5068263;28;1158;-14
2023/03/23 07:27:15;;;;;;;;;;;;;;;25.82;27.71;100943.16;5079876;28;1225;-14
2023/03/23 07:29:41;;;;;;;;;;;;;;;25.77;27.78;100945.53;5066360;28;1263;-14
2023/03/23 07:32:14;;;;;;;;;;;;;;;25.70;27.47;100945.34;5069048;28;1218;-14
2023/03/23 07:34:39;;;;;;;;;;;;;;;25.66;27.90;100936.75;5063851;28;1266;-14
2023/03/23 07:37:19;;;;;;;;;;;;;;;25.63;27.77;100937.09;5079384;28;1906;-14
2023/03/23 07:39:49;;;;;;;;;;;;;;;25.64;27.92;100928.00;5073028;28;1442;-15
2023/03/23 07:42:15;;;;;;;;;;;;;;;25.76;27.77;100933.03;5073214;28;1500;-14
2023/03/23 07:44:46;;;;;;;;;;;;;;;25.71;27.96;100935.44;5072376;28;1388;-14
2023/03/23 07:47:13;;;;;;;;;;;;;;;25.72;27.73;100940.66;5060558;28;1413;-14
2023/03/23 07:49:39;;;;;;;;;;;;;;;25.71;27.68;100944.34;5078773;28;1160;-14
2023/03/23 07:52:31;;;;;;;;;;;;;;;25.53;28.15;100936.38;5088133;28;1083;-14
2023/03/23 07:54:57;;;;;;;;;;;;;;;25.63;28.00;100942.50;5059333;28;1565;-14
2023/03/23 07:57:34;;;;;;;;;;;;;;;25.62;27.95;100945.31;5064540;28;1910;-14
2023/03/23 08:00:00;;;;;;;;;;;;;;;25.75;27.70;100952.91;5066085;28;1111;-14
2023/03/23 08:02:26;;;;;;;;;;;;;;;25.72;27.74;100950.56;5075262;28;1300;-15
2023/03/23 08:05:13;;;;;;;;;;;;;;;25.74;27.94;100952.06;5066040;28;1774;-14
2023/03/23 08:07:41;;;;;;;;;;;;;;;25.64;27.92;100949.53;5088438;28;1098;-14
2023/03/23 08:10:26;;;;;;;;;;;;;;;25.64;27.86;100952.25;5083064;28;1122;-15
2023/03/23 08:13:30;;;;;;;;;;;;;;;25.60;28.38;100947.34;5059861;28;1391;-15
2023/03/23 08:16:25;;;;;;;;;;;;;;;25.75;28.15;100951.06;5026875;28;1481;-14
2023/03/23 08:18:53;;;;;;;;;;;;;;;25.39;28.66;100954.06;5077197;28;1913;-14
2023/03/23 08:21:38;;;;;;;;;;;;;;;25.48;28.46;100955.75;5096535;28;1047;-15
2023/03/23 08:24:06;;;;;;;;;;;;;;;25.51;28.29;100958.09;5083558;28;1194;-14
2023/03/23 08:26:58;;;;;;;;;;;;;;;25.56;28.10;100960.28;5072539;28;1191;-14
2023/03/23 08:29:45;;;;;;;;;;;;;;;25.60;28.11;100966.19;5077939;28;1348;-14
2023/03/23 08:32:11;;;;;;;;;;;;;;;25.57;28.19;100956.59;5079347;28;996;-14
2023/03/23 08:34:51;;;;;;;;;;;;;;;25.56;28.01;100960.28;5065298;28;1304;-15
2023/03/23 08:37:38;;;;;;;;;;;;;;;25.47;28.59;100962.16;5070782;28;1973;-15
2023/03/23 08:40:22;;;;;;;;;;;;;;;25.55;28.29;100962.16;5086085;28;1099;-15
2023/03/23 08:43:12;;;;;;;;;;;;;;;25.66;28.22;100961.00;5065450;28;1126;-14
2023/03/23 08:45:56;;;;;;;;;;;;;;;25.60;28.14;100964.34;5080269;28;1102;-14
2023/03/23 08:48:40;;;;;;;;;;;;;;;25.50;28.58;100963.66;5076136;28;1218;-15
2023/03/23 08:51:28;;;;;;;;;;;;;;;25.58;28.36;100969.06;5075822;28;1195;-15
2023/03/23 08:54:17;;;;;;;;;;;;;;;25.51;28.58;100974.25;5047256;28;1196;-14
2023/03/23 08:57:03;;;;;;;;;;;;;;;25.55;28.51;100972.94;5089058;28;1105;-15
2023/03/23 08:59:53;;;;;;;;;;;;;;;25.61;28.12;100970.59;5047031;28;1083;-15
2023/03/23 09:02:41;;;;;;;;;;;;;;;25.44;28.63;100965.19;5066190;28;1102;-14
2023/03/23 09:05:19;;;;;;;;;;;;;;;25.60;28.42;100967.03;5086740;28;1108;-15
2023/03/23 09:08:15;;;;;;;;;;;;;;;25.55;28.49;100962.16;5076094;28;1230;-15
2023/03/23 09:10:40;;;;;;;;;;;;;;;25.46;28.72;100960.44;5085588;28;1224;-14
2023/03/23 09:13:06;;;;;;;;;;;;;;;25.48;28.67;100954.91;5076393;28;1224;-14
2023/03/23 09:15:32;;;;;;;;;;;;;;;25.56;28.51;100965.69;5087012;28;1034;-14
2023/03/23 09:17:58;;;;;;;;;;;;;;;25.59;28.56;100953.75;5078129;28;1975;-14
2023/03/23 09:20:25;;;;;;;;;;;;;;;25.55;28.67;100956.78;5095982;28;1039;-15
2023/03/23 09:22:51;;;;;;;;;;;;;;;25.55;28.62;100954.06;5082423;28;1217;-14
2023/03/23 09:25:20;;;;;;;;;;;;;;;25.42;28.82;100957.25;5094413;28;1232;-15
2023/03/23 09:27:49;;;;;;;;;;;;;;;25.47;28.67;100953.22;5092072;28;915;-14
2023/03/23 09:30:14;;;;;;;;;;;;;;;25.62;28.24;100951.56;5096394;28;1225;-15
2023/03/23 09:32:41;;;;;;;;;;;;;;;25.61;28.40;100955.25;5092270;28;1057;-15
2023/03/23 09:35:09;;;;;;;;;;;;;;;25.58;28.59;100960.13;5079997;28;1071;-15
2023/03/23 09:37:38;;;;;;;;;;;;;;;25.51;28.44;100959.94;5078157;28;1983;-15
2023/03/23 09:40:04;;;;;;;;;;;;;;;25.44;28.51;100960.63;5078922;28;1091;-14
2023/03/23 09:42:35;;;;;;;;;;;;;;;25.37;28.60;100956.06;5095302;28;1078;-14
2023/03/23 09:45:04;;;;;;;;;;;;;;;25.25;28.53;100966.31;5078573;28;1154;-15
2023/03/23 09:47:48;;;;;;;;;;;;;;;25.37;28.67;100956.94;5086642;28;1007;-15
2023/03/23 09:50:26;;;;;;;;;;;;;;;25.27;28.71;100956.22;5084539;28;1314;-15
2023/03/23 09:52:55;;;;;;;;;;;;;;;25.27;28.89;100950.84;5088632;28;1324;-15
2023/03/23 09:55:21;;;;;;;;;;;;;;;25.28;28.97;100957.91;5075463;28;1198;-15
2023/03/23 09:57:58;;;;;;;;;;;;;;;25.32;28.84;100953.88;5088478;28;1905;-15
2023/03/23 10:00:37;;;;;;;;;;;;;;;25.35;28.81;100956.25;5069954;28;1265;-15
2023/03/23 10:03:05;;;;;;;;;;;;;;;24.86;28.18;100956.94;5095730;28;968;-15
2023/03/23 10:05:41;;;;;;;;;;;;;;;24.26;29.02;100944.19;5061040;28;1158;-14
2023/03/23 10:08:13;;;;;;;;;;;;;;;24.18;29.26;100941.47;5080177;28;1043;-14
2023/03/23 10:10:43;;;;;;;;;;;;;;;23.91;29.44;100944.09;5089295;28;1066;-15
2023/03/23 10:13:16;;;;;;;;;;;;;;;23.88;29.73;100935.50;5071199;28;1062;-15
2023/03/23 10:15:42;;;;;;;;;;;;;;;23.82;30.01;100931.63;5077299;28;923;-15
2023/03/23 10:18:13;;;;;;;;;;;;;;;22.95;31.36;100933.81;5063123;28;1905;-15
2023/03/23 10:20:51;;;;;;;;;;;;;;;22.95;31.30;100932.97;5076451;28;1007;-15
2023/03/23 10:23:20;;;;;;;;;;;;;;;24.53;29.01;100933.41;5074599;28;1023;-15
2023/03/23 10:25:48;;;;;;;;;;;;;;;25.67;27.22;100937.59;5079895;28;1197;-15
2023/03/23 10:28:18;;;;;;;;;;;;;;;25.54;27.40;100938.91;5081246;28;1229;-15
2023/03/23 10:30:54;;;;;;;;;;;;;;;24.95;28.13;100939.84;5085423;28;1285;-15
2023/03/23 10:33:22;;;;;;;;;;;;;;;25.47;27.10;100931.69;5078987;28;1126;-15
2023/03/23 10:35:49;;;;;;;;;;;;;;;25.71;26.46;100938.13;5075986;28;1181;-15
2023/03/23 10:38:23;;;;;;;;;;;;;;;25.37;26.98;100932.69;5076563;28;1987;-15
2023/03/23 10:40:50;;;;;;;;;;;;;;;25.63;26.61;100936.25;5081996;28;1141;-14
2023/03/23 10:43:16;;;;;;;;;;;;;;;25.33;26.76;100935.84;5078630;28;1234;-15
2023/03/23 10:45:43;;;;;;;;;;;;;;;25.49;26.28;100935.88;5089595;28;1106;-15
2023/03/23 10:48:09;;;;;;;;;;;;;;;26.30;25.55;100931.63;5086350;28;1042;-15
2023/03/23 10:50:35;;;;;;;;;;;;;;;26.30;25.86;100928.91;5091661;28;1128;-15
2023/03/23 10:53:00;;;;;;;;;;;;;;;26.74;24.98;100932.16;5093582;28;1145;-15
2023/03/23 10:55:39;;;;;;;;;;;;;;;27.20;24.36;100922.47;5084432;28;1234;-15
2023/03/23 10:58:05;;;;;;;;;;;;;;;25.66;26.30;100922.44;5080960;28;1987;-15
2023/03/23 11:00:31;;;;;;;;;;;;;;;24.93;27.56;100923.84;5080680;28;1324;-15
2023/03/23 11:03:02;;;;;;;;;;;;;;;24.68;27.74;100912.97;5087317;28;1206;-15
2023/03/23 11:05:43;;;;;;;;;;;;;;;24.48;27.71;100923.16;5098452;28;1299;-15
2023/03/23 11:08:14;;;;;;;;;;;;;;;24.35;28.23;100915.53;5065250;28;1202;-15
2023/03/23 11:10:40;;;;;;;;;;;;;;;24.16;28.42;100906.69;5066567;28;1178;-14
2023/03/23 11:13:10;;;;;;;;;;;;;;;24.15;28.77;100904.97;5098371;28;1120;-14
2023/03/23 11:15:37;;;;;;;;;;;;;;;24.12;28.59;100901.75;5059525;28;1281;-15
2023/03/23 11:18:03;;;;;;;;;;;;;;;24.06;28.74;100900.53;5077931;28;1913;-15
2023/03/23 11:20:35;;;;;;;;;;;;;;;24.08;28.84;100901.22;5077538;28;1183;-15
2023/03/23 11:23:01;;;;;;;;;;;;;;;23.95;29.09;100899.81;5091766;28;1153;-15
2023/03/23 11:25:27;;;;;;;;;;;;;;;23.72;29.39;100896.81;5077787;28;1202;-15
2023/03/23 11:27:52;;;;;;;;;;;;;;;23.77;29.09;100893.63;5077537;28;897;-15
2023/03/23 11:30:23;;;;;;;;;;;;;;;23.69;29.36;100891.75;5086257;28;1090;-15
2023/03/23 11:32:49;;;;;;;;;;;;;;;23.62;29.43;100896.91;5077684;28;1046;-15
2023/03/23 11:35:18;;;;;;;;;;;;;;;23.62;29.56;100899.59;5087225;28;1095;-15
2023/03/23 11:37:46;;;;;;;;;;;;;;;23.64;29.58;100899.41;5065983;28;1905;-15
2023/03/23 11:40:16;;;;;;;;;;;;;;;23.57;29.46;100905.41;5079474;28;995;-16
2023/03/23 11:42:48;;;;;;;;;;;;;;;23.54;29.58;100899.50;5097501;28;1062;-14
2023/03/23 11:45:22;;;;;;;;;;;;;;;23.50;29.64;100890.91;5086939;28;1538;-15
2023/03/23 11:47:56;;;;;;;;;;;;;;;23.66;29.56;100895.56;5090683;28;1134;-15
2023/03/23 11:50:22;;;;;;;;;;;;;;;23.41;30.04;100895.38;5078722;28;1178;-15
2023/03/23 11:53:17;;;;;;;;;;;;;;;23.44;30.03;100889.69;5078035;28;1239;-15
2023/03/23 11:55:46;;;;;;;;;;;;;;;23.57;29.88;100899.19;5005898;28;1211;-15
2023/03/23 11:58:12;;;;;;;;;;;;;;;23.64;29.68;100891.38;5088458;28;1902;-14
2023/03/23 12:00:40;;;;;;;;;;;;;;;22.83;31.14;100892.06;5066567;28;1170;-15
2023/03/23 12:03:08;;;;;;;;;;;;;;;23.18;30.62;100892.28;5091969;28;1058;-15
2023/03/23 12:05:40;;;;;;;;;;;;;;;23.45;30.34;100891.38;5079006;28;1089;-15
2023/03/23 12:08:25;;;;;;;;;;;;;;;23.28;30.73;100886.81;5066087;28;1010;-15
2023/03/23 12:10:59;;;;;;;;;;;;;;;22.96;31.14;100881.84;5076760;28;1099;-15
2023/03/23 12:13:25;;;;;;;;;;;;;;;23.33;30.77;100885.38;5090087;28;1550;-15
2023/03/23 12:15:51;;;;;;;;;;;;;;;23.38;30.81;100887.59;5096735;28;1007;-15
2023/03/23 12:18:30;;;;;;;;;;;;;;;23.50;30.52;100882.88;5096281;28;1909;-15
2023/03/23 12:20:56;;;;;;;;;;;;;;;23.58;30.30;100882.94;5089141;28;1065;-15
2023/03/23 12:23:25;;;;;;;;;;;;;;;23.75;30.11;100879.50;5076633;28;1210;-15
2023/03/23 12:25:57;;;;;;;;;;;;;;;23.75;30.12;100879.50;5076655;28;1185;-15
2023/03/23 12:28:32;;;;;;;;;;;;;;;23.09;31.08;100876.09;5076550;28;1039;-15
2023/03/23 12:30:57;;;;;;;;;;;;;;;23.20;30.96;100874.19;5094423;28;1090;-15
2023/03/23 12:33:26;;;;;;;;;;;;;;;23.45;30.28;100874.44;5082773;28;1102;-15
2023/03/23 12:36:05;;;;;;;;;;;;;;;23.34;30.53;100870.09;5089142;28;1042;-15
2023/03/23 12:38:46;;;;;;;;;;;;;;;23.56;30.73;100873.31;5089838;28;1972;-13
2023/03/23 12:41:16;;;;;;;;;;;;;;;24.32;29.80;100875.53;5076392;28;1010;-14
2023/03/23 12:43:49;;;;;;;;;;;;;;;24.60;29.42;100871.75;5071610;28;1043;-14
2023/03/23 12:46:24;;;;;;;;;;;;;;;24.63;29.52;100874.09;5084958;28;1293;-14
2023/03/23 12:48:57;;;;;;;;;;;;;;;24.65;29.46;100872.97;5077521;28;1297;-14
2023/03/23 12:51:43;;;;;;;;;;;;;;;24.79;29.24;100878.72;5090202;28;1323;-14
2023/03/23 12:54:14;;;;;;;;;;;;;;;24.70;29.46;100873.31;5092381;28;1304;-14
2023/03/23 12:57:00;;;;;;;;;;;;;;;24.73;29.18;100876.66;5077819;28;1292;-14
2023/03/23 12:59:32;;;;;;;;;;;;;;;24.66;29.68;100871.09;5092617;28;1917;-14
2023/03/23 13:02:03;;;;;;;;;;;;;;;24.83;29.50;100866.59;5086403;28;1129;-14
2023/03/23 13:04:34;;;;;;;;;;;;;;;24.86;29.43;100863.59;5058574;28;1055;-14
2023/03/23 13:07:01;;;;;;;;;;;;;;;24.74;29.48;100857.66;5078119;28;1433;-13
2023/03/23 13:09:28;;;;;;;;;;;;;;;24.85;29.44;100864.59;5094796;28;1273;-15